sensor_id;sensor_type;location;lat;lon;timestamp;P1;durP1;ratioP1;P2;durP2;ratioP2
29568;SDS011;16501;51.462;14.346;2022-12-13T00:01:42;36.03;;;16.38;;
29568;SDS011;16501;51.462;14.346;2022-12-13T00:04:09;35.80;;;16.83;;
29568;SDS011;16501;51.462;14.346;2022-12-13T00:06:35;35.78;;;16.15;;
29568;SDS011;16501;51.462;14.346;2022-12-13T00:09:01;37.10;;;16.55;;
29568;SDS011;16501;51.462;14.346;2022-12-13T00:11:30;35.08;;;16.30;;
29568;SDS011;16501;51.462;14.346;2022-12-13T00:13:56;37.28;;;16.52;;
29568;SDS011;16501;51.462;14.346;2022-12-13T00:16:23;34.92;;;15.18;;
29568;SDS011;16501;51.462;14.346;2022-12-13T00:18:54;35.58;;;15.80;;
29568;SDS011;16501;51.462;14.346;2022-12-13T00:21:24;37.65;;;16.40;;
29568;SDS011;16501;51.462;14.346;2022-12-13T00:23:52;37.25;;;16.95;;
29568;SDS011;16501;51.462;14.346;2022-12-13T00:26:19;33.17;;;15.23;;
29568;SDS011;16501;51.462;14.346;2022-12-13T00:28:48;32.55;;;15.70;;
29568;SDS011;16501;51.462;14.346;2022-12-13T00:31:15;34.08;;;15.32;;
29568;SDS011;16501;51.462;14.346;2022-12-13T00:33:43;36.00;;;16.13;;
29568;SDS011;16501;51.462;14.346;2022-12-13T00:36:10;35.55;;;15.82;;
29568;SDS011;16501;51.462;14.346;2022-12-13T00:38:36;35.13;;;15.93;;
29568;SDS011;16501;51.462;14.346;2022-12-13T00:43:55;37.83;;;16.42;;
29568;SDS011;16501;51.462;14.346;2022-12-13T00:46:21;34.05;;;15.88;;
29568;SDS011;16501;51.462;14.346;2022-12-13T00:48:47;33.03;;;15.00;;
29568;SDS011;16501;51.462;14.346;2022-12-13T00:51:19;33.28;;;15.38;;
29568;SDS011;16501;51.462;14.346;2022-12-13T00:53:47;38.90;;;17.08;;
29568;SDS011;16501;51.462;14.346;2022-12-13T00:56:14;38.33;;;16.30;;
29568;SDS011;16501;51.462;14.346;2022-12-13T00:58:44;34.63;;;15.13;;
29568;SDS011;16501;51.462;14.346;2022-12-13T01:01:13;33.85;;;15.55;;
29568;SDS011;16501;51.462;14.346;2022-12-13T01:03:40;35.20;;;16.73;;
29568;SDS011;16501;51.462;14.346;2022-12-13T01:06:08;37.95;;;16.02;;
29568;SDS011;16501;51.462;14.346;2022-12-13T01:08:44;35.42;;;15.75;;
29568;SDS011;16501;51.462;14.346;2022-12-13T01:11:12;40.00;;;16.00;;
29568;SDS011;16501;51.462;14.346;2022-12-13T01:13:39;37.10;;;16.55;;
29568;SDS011;16501;51.462;14.346;2022-12-13T01:16:06;35.10;;;15.00;;
29568;SDS011;16501;51.462;14.346;2022-12-13T01:18:33;34.70;;;16.10;;
29568;SDS011;16501;51.462;14.346;2022-12-13T01:21:04;33.92;;;14.63;;
29568;SDS011;16501;51.462;14.346;2022-12-13T01:23:35;31.42;;;14.55;;
29568;SDS011;16501;51.462;14.346;2022-12-13T01:26:04;34.45;;;14.88;;
29568;SDS011;16501;51.462;14.346;2022-12-13T01:28:32;34.92;;;15.55;;
29568;SDS011;16501;51.462;14.346;2022-12-13T01:30:58;31.75;;;15.35;;
29568;SDS011;16501;51.462;14.346;2022-12-13T01:33:26;31.10;;;14.88;;
29568;SDS011;16501;51.462;14.346;2022-12-13T01:35:55;33.67;;;15.90;;
29568;SDS011;16501;51.462;14.346;2022-12-13T01:38:20;33.60;;;14.55;;
29568;SDS011;16501;51.462;14.346;2022-12-13T01:40:50;36.08;;;15.85;;
29568;SDS011;16501;51.462;14.346;2022-12-13T01:43:22;26.77;;;13.38;;
29568;SDS011;16501;51.462;14.346;2022-12-13T01:45:48;34.30;;;15.30;;
29568;SDS011;16501;51.462;14.346;2022-12-13T01:48:15;33.60;;;15.15;;
29568;SDS011;16501;51.462;14.346;2022-12-13T01:50:48;28.85;;;13.50;;
29568;SDS011;16501;51.462;14.346;2022-12-13T01:53:18;31.40;;;15.23;;
29568;SDS011;16501;51.462;14.346;2022-12-13T01:55:48;34.75;;;14.65;;
29568;SDS011;16501;51.462;14.346;2022-12-13T01:58:17;29.05;;;14.27;;
29568;SDS011;16501;51.462;14.346;2022-12-13T02:00:44;32.63;;;14.52;;
29568;SDS011;16501;51.462;14.346;2022-12-13T02:03:11;31.50;;;13.88;;
29568;SDS011;16501;51.462;14.346;2022-12-13T02:05:38;29.63;;;15.05;;
29568;SDS011;16501;51.462;14.346;2022-12-13T02:08:09;31.67;;;14.43;;
29568;SDS011;16501;51.462;14.346;2022-12-13T02:10:38;30.75;;;14.48;;
29568;SDS011;16501;51.462;14.346;2022-12-13T02:13:03;34.20;;;14.70;;
29568;SDS011;16501;51.462;14.346;2022-12-13T02:15:36;31.00;;;13.88;;
29568;SDS011;16501;51.462;14.346;2022-12-13T02:18:35;33.08;;;13.88;;
29568;SDS011;16501;51.462;14.346;2022-12-13T02:21:18;29.73;;;13.93;;
29568;SDS011;16501;51.462;14.346;2022-12-13T02:32:42;29.45;;;12.52;;
29568;SDS011;16501;51.462;14.346;2022-12-13T02:35:40;28.30;;;13.45;;
29568;SDS011;16501;51.462;14.346;2022-12-13T02:38:13;26.23;;;12.95;;
29568;SDS011;16501;51.462;14.346;2022-12-13T02:43:44;30.95;;;13.52;;
29568;SDS011;16501;51.462;14.346;2022-12-13T02:46:17;35.60;;;13.63;;
29568;SDS011;16501;51.462;14.346;2022-12-13T02:48:45;32.75;;;13.90;;
29568;SDS011;16501;51.462;14.346;2022-12-13T02:51:16;30.17;;;13.90;;
29568;SDS011;16501;51.462;14.346;2022-12-13T02:53:45;29.52;;;12.18;;
29568;SDS011;16501;51.462;14.346;2022-12-13T02:56:12;32.83;;;13.88;;
29568;SDS011;16501;51.462;14.346;2022-12-13T02:58:39;29.13;;;12.77;;
29568;SDS011;16501;51.462;14.346;2022-12-13T03:09:28;27.15;;;12.68;;
29568;SDS011;16501;51.462;14.346;2022-12-13T03:12:09;29.08;;;12.82;;
29568;SDS011;16501;51.462;14.346;2022-12-13T03:15:20;27.42;;;12.60;;
29568;SDS011;16501;51.462;14.346;2022-12-13T03:17:55;25.45;;;12.25;;
29568;SDS011;16501;51.462;14.346;2022-12-13T03:20:27;27.35;;;11.95;;
29568;SDS011;16501;51.462;14.346;2022-12-13T03:22:53;31.42;;;12.52;;
29568;SDS011;16501;51.462;14.346;2022-12-13T03:25:21;29.80;;;12.98;;
29568;SDS011;16501;51.462;14.346;2022-12-13T03:27:49;25.33;;;12.75;;
29568;SDS011;16501;51.462;14.346;2022-12-13T03:30:15;25.17;;;12.25;;
29568;SDS011;16501;51.462;14.346;2022-12-13T03:32:41;30.33;;;13.38;;
29568;SDS011;16501;51.462;14.346;2022-12-13T03:35:06;32.13;;;13.18;;
29568;SDS011;16501;51.462;14.346;2022-12-13T03:37:32;27.92;;;12.63;;
29568;SDS011;16501;51.462;14.346;2022-12-13T03:39:57;29.17;;;12.30;;
29568;SDS011;16501;51.462;14.346;2022-12-13T03:42:23;26.90;;;11.85;;
29568;SDS011;16501;51.462;14.346;2022-12-13T03:44:49;33.83;;;14.00;;
29568;SDS011;16501;51.462;14.346;2022-12-13T03:47:14;27.88;;;13.75;;
29568;SDS011;16501;51.462;14.346;2022-12-13T03:49:41;27.23;;;13.25;;
29568;SDS011;16501;51.462;14.346;2022-12-13T03:52:06;30.92;;;13.70;;
29568;SDS011;16501;51.462;14.346;2022-12-13T03:54:32;25.85;;;12.48;;
29568;SDS011;16501;51.462;14.346;2022-12-13T03:56:57;28.27;;;13.18;;
29568;SDS011;16501;51.462;14.346;2022-12-13T03:59:22;30.70;;;12.40;;
29568;SDS011;16501;51.462;14.346;2022-12-13T04:01:49;25.77;;;12.98;;
29568;SDS011;16501;51.462;14.346;2022-12-13T04:04:14;28.88;;;13.00;;
29568;SDS011;16501;51.462;14.346;2022-12-13T04:06:39;30.23;;;13.07;;
29568;SDS011;16501;51.462;14.346;2022-12-13T04:09:05;29.30;;;12.68;;
29568;SDS011;16501;51.462;14.346;2022-12-13T04:11:30;27.02;;;12.13;;
29568;SDS011;16501;51.462;14.346;2022-12-13T04:14:14;30.55;;;13.50;;
29568;SDS011;16501;51.462;14.346;2022-12-13T04:16:40;25.25;;;12.80;;
29568;SDS011;16501;51.462;14.346;2022-12-13T04:19:07;27.83;;;12.32;;
29568;SDS011;16501;51.462;14.346;2022-12-13T04:21:32;31.92;;;12.90;;
29568;SDS011;16501;51.462;14.346;2022-12-13T04:23:57;28.25;;;12.93;;
29568;SDS011;16501;51.462;14.346;2022-12-13T04:26:23;25.08;;;12.32;;
29568;SDS011;16501;51.462;14.346;2022-12-13T04:28:49;23.38;;;11.63;;
29568;SDS011;16501;51.462;14.346;2022-12-13T04:31:14;27.10;;;13.05;;
29568;SDS011;16501;51.462;14.346;2022-12-13T04:33:40;29.50;;;12.40;;
29568;SDS011;16501;51.462;14.346;2022-12-13T04:36:06;25.52;;;12.50;;
29568;SDS011;16501;51.462;14.346;2022-12-13T04:38:32;27.67;;;12.52;;
29568;SDS011;16501;51.462;14.346;2022-12-13T04:41:09;24.77;;;11.52;;
29568;SDS011;16501;51.462;14.346;2022-12-13T04:43:41;23.05;;;11.95;;
29568;SDS011;16501;51.462;14.346;2022-12-13T04:46:07;24.75;;;11.23;;
29568;SDS011;16501;51.462;14.346;2022-12-13T04:48:32;27.55;;;12.02;;
29568;SDS011;16501;51.462;14.346;2022-12-13T04:51:00;27.55;;;11.80;;
29568;SDS011;16501;51.462;14.346;2022-12-13T04:53:26;26.55;;;13.38;;
29568;SDS011;16501;51.462;14.346;2022-12-13T04:55:52;25.73;;;11.90;;
29568;SDS011;16501;51.462;14.346;2022-12-13T04:58:17;23.40;;;11.10;;
29568;SDS011;16501;51.462;14.346;2022-12-13T05:00:43;23.08;;;11.18;;
29568;SDS011;16501;51.462;14.346;2022-12-13T05:03:09;20.48;;;10.00;;
29568;SDS011;16501;51.462;14.346;2022-12-13T05:05:37;21.17;;;10.32;;
29568;SDS011;16501;51.462;14.346;2022-12-13T05:08:03;22.02;;;11.13;;
29568;SDS011;16501;51.462;14.346;2022-12-13T05:10:29;20.98;;;10.15;;
29568;SDS011;16501;51.462;14.346;2022-12-13T05:12:55;21.10;;;11.32;;
29568;SDS011;16501;51.462;14.346;2022-12-13T05:15:21;20.95;;;11.18;;
29568;SDS011;16501;51.462;14.346;2022-12-13T05:17:47;23.05;;;10.73;;
29568;SDS011;16501;51.462;14.346;2022-12-13T05:20:12;22.17;;;10.65;;
29568;SDS011;16501;51.462;14.346;2022-12-13T05:22:37;19.90;;;10.13;;
29568;SDS011;16501;51.462;14.346;2022-12-13T05:25:03;22.98;;;10.55;;
29568;SDS011;16501;51.462;14.346;2022-12-13T05:27:29;21.13;;;10.32;;
29568;SDS011;16501;51.462;14.346;2022-12-13T05:29:55;22.08;;;10.43;;
29568;SDS011;16501;51.462;14.346;2022-12-13T05:32:20;20.35;;;10.15;;
29568;SDS011;16501;51.462;14.346;2022-12-13T05:34:46;21.40;;;10.15;;
29568;SDS011;16501;51.462;14.346;2022-12-13T05:37:12;18.33;;;10.18;;
29568;SDS011;16501;51.462;14.346;2022-12-13T05:39:38;15.93;;;8.70;;
29568;SDS011;16501;51.462;14.346;2022-12-13T05:42:04;21.35;;;10.23;;
29568;SDS011;16501;51.462;14.346;2022-12-13T05:44:30;19.58;;;10.10;;
29568;SDS011;16501;51.462;14.346;2022-12-13T05:46:56;18.95;;;9.73;;
29568;SDS011;16501;51.462;14.346;2022-12-13T05:49:22;17.10;;;8.82;;
29568;SDS011;16501;51.462;14.346;2022-12-13T05:51:48;20.88;;;9.98;;
29568;SDS011;16501;51.462;14.346;2022-12-13T05:54:14;22.55;;;10.90;;
29568;SDS011;16501;51.462;14.346;2022-12-13T05:56:39;19.58;;;9.68;;
29568;SDS011;16501;51.462;14.346;2022-12-13T05:59:04;22.13;;;9.13;;
29568;SDS011;16501;51.462;14.346;2022-12-13T06:01:31;22.17;;;10.35;;
29568;SDS011;16501;51.462;14.346;2022-12-13T06:03:57;22.42;;;10.23;;
29568;SDS011;16501;51.462;14.346;2022-12-13T06:06:22;16.70;;;8.63;;
29568;SDS011;16501;51.462;14.346;2022-12-13T06:08:48;19.55;;;9.48;;
29568;SDS011;16501;51.462;14.346;2022-12-13T06:11:13;23.02;;;9.55;;
29568;SDS011;16501;51.462;14.346;2022-12-13T06:13:42;20.45;;;9.60;;
29568;SDS011;16501;51.462;14.346;2022-12-13T06:16:08;16.50;;;8.25;;
29568;SDS011;16501;51.462;14.346;2022-12-13T06:18:35;17.88;;;9.75;;
29568;SDS011;16501;51.462;14.346;2022-12-13T06:21:01;22.45;;;9.43;;
29568;SDS011;16501;51.462;14.346;2022-12-13T06:23:28;18.73;;;9.55;;
29568;SDS011;16501;51.462;14.346;2022-12-13T06:25:55;18.85;;;8.98;;
29568;SDS011;16501;51.462;14.346;2022-12-13T06:28:21;20.00;;;8.80;;
29568;SDS011;16501;51.462;14.346;2022-12-13T06:30:47;18.23;;;9.30;;
29568;SDS011;16501;51.462;14.346;2022-12-13T06:33:18;21.52;;;9.50;;
29568;SDS011;16501;51.462;14.346;2022-12-13T06:35:45;22.50;;;8.77;;
29568;SDS011;16501;51.462;14.346;2022-12-13T06:38:12;18.55;;;8.98;;
29568;SDS011;16501;51.462;14.346;2022-12-13T06:40:38;20.20;;;9.10;;
29568;SDS011;16501;51.462;14.346;2022-12-13T06:43:04;19.85;;;9.93;;
29568;SDS011;16501;51.462;14.346;2022-12-13T06:45:29;17.15;;;9.50;;
29568;SDS011;16501;51.462;14.346;2022-12-13T06:47:56;19.40;;;9.07;;
29568;SDS011;16501;51.462;14.346;2022-12-13T06:50:22;19.48;;;9.73;;
29568;SDS011;16501;51.462;14.346;2022-12-13T06:52:48;44.47;;;18.42;;
29568;SDS011;16501;51.462;14.346;2022-12-13T06:55:13;100.75;;;42.33;;
29568;SDS011;16501;51.462;14.346;2022-12-13T06:57:40;32.65;;;16.70;;
29568;SDS011;16501;51.462;14.346;2022-12-13T07:00:08;25.60;;;14.35;;
29568;SDS011;16501;51.462;14.346;2022-12-13T07:02:34;25.77;;;11.40;;
29568;SDS011;16501;51.462;14.346;2022-12-13T07:05:02;32.83;;;16.42;;
29568;SDS011;16501;51.462;14.346;2022-12-13T07:07:27;88.28;;;40.00;;
29568;SDS011;16501;51.462;14.346;2022-12-13T07:09:53;52.10;;;22.85;;
29568;SDS011;16501;51.462;14.346;2022-12-13T07:12:19;43.55;;;22.30;;
29568;SDS011;16501;51.462;14.346;2022-12-13T07:14:45;25.63;;;14.00;;
29568;SDS011;16501;51.462;14.346;2022-12-13T07:17:10;22.75;;;10.75;;
29568;SDS011;16501;51.462;14.346;2022-12-13T07:19:35;20.73;;;9.80;;
29568;SDS011;16501;51.462;14.346;2022-12-13T07:22:01;22.27;;;12.48;;
29568;SDS011;16501;51.462;14.346;2022-12-13T07:24:29;21.80;;;12.57;;
29568;SDS011;16501;51.462;14.346;2022-12-13T07:26:56;23.80;;;10.90;;
29568;SDS011;16501;51.462;14.346;2022-12-13T07:29:23;33.13;;;14.63;;
29568;SDS011;16501;51.462;14.346;2022-12-13T07:31:49;25.52;;;14.63;;
29568;SDS011;16501;51.462;14.346;2022-12-13T07:34:14;40.03;;;16.90;;
29568;SDS011;16501;51.462;14.346;2022-12-13T07:36:40;39.40;;;17.48;;
29568;SDS011;16501;51.462;14.346;2022-12-13T07:39:05;36.38;;;17.23;;
29568;SDS011;16501;51.462;14.346;2022-12-13T07:41:31;20.50;;;12.30;;
29568;SDS011;16501;51.462;14.346;2022-12-13T07:43:56;25.90;;;13.40;;
29568;SDS011;16501;51.462;14.346;2022-12-13T07:46:23;22.42;;;11.25;;
29568;SDS011;16501;51.462;14.346;2022-12-13T07:48:48;88.18;;;34.22;;
29568;SDS011;16501;51.462;14.346;2022-12-13T07:51:15;39.88;;;21.05;;
29568;SDS011;16501;51.462;14.346;2022-12-13T07:53:40;21.95;;;11.07;;
29568;SDS011;16501;51.462;14.346;2022-12-13T07:56:07;29.83;;;12.75;;
29568;SDS011;16501;51.462;14.346;2022-12-13T07:58:33;32.05;;;13.57;;
29568;SDS011;16501;51.462;14.346;2022-12-13T08:00:59;30.17;;;15.25;;
29568;SDS011;16501;51.462;14.346;2022-12-13T08:03:27;26.60;;;10.63;;
29568;SDS011;16501;51.462;14.346;2022-12-13T08:06:03;18.52;;;8.75;;
29568;SDS011;16501;51.462;14.346;2022-12-13T08:08:31;20.42;;;10.02;;
29568;SDS011;16501;51.462;14.346;2022-12-13T08:11:04;79.28;;;28.13;;
29568;SDS011;16501;51.462;14.346;2022-12-13T08:13:31;48.58;;;19.90;;
29568;SDS011;16501;51.462;14.346;2022-12-13T08:15:58;24.50;;;11.85;;
29568;SDS011;16501;51.462;14.346;2022-12-13T08:18:26;30.15;;;15.63;;
29568;SDS011;16501;51.462;14.346;2022-12-13T08:20:57;33.70;;;18.00;;
29568;SDS011;16501;51.462;14.346;2022-12-13T08:23:28;29.27;;;18.20;;
29568;SDS011;16501;51.462;14.346;2022-12-13T08:25:57;27.13;;;15.48;;
29568;SDS011;16501;51.462;14.346;2022-12-13T08:28:24;32.45;;;17.75;;
29568;SDS011;16501;51.462;14.346;2022-12-13T08:30:51;27.98;;;13.70;;
29568;SDS011;16501;51.462;14.346;2022-12-13T08:33:19;24.25;;;11.55;;
29568;SDS011;16501;51.462;14.346;2022-12-13T08:35:46;19.42;;;9.63;;
29568;SDS011;16501;51.462;14.346;2022-12-13T08:38:13;19.55;;;10.43;;
29568;SDS011;16501;51.462;14.346;2022-12-13T08:40:39;16.33;;;9.02;;
29568;SDS011;16501;51.462;14.346;2022-12-13T08:43:05;20.92;;;9.55;;
29568;SDS011;16501;51.462;14.346;2022-12-13T08:45:31;23.05;;;8.82;;
29568;SDS011;16501;51.462;14.346;2022-12-13T08:47:58;18.40;;;9.23;;
29568;SDS011;16501;51.462;14.346;2022-12-13T08:50:24;15.52;;;8.20;;
29568;SDS011;16501;51.462;14.346;2022-12-13T08:52:51;18.35;;;7.60;;
29568;SDS011;16501;51.462;14.346;2022-12-13T08:55:16;16.00;;;8.27;;
29568;SDS011;16501;51.462;14.346;2022-12-13T08:57:43;17.30;;;7.72;;
29568;SDS011;16501;51.462;14.346;2022-12-13T09:00:10;15.70;;;7.47;;
29568;SDS011;16501;51.462;14.346;2022-12-13T09:02:38;16.45;;;7.32;;
29568;SDS011;16501;51.462;14.346;2022-12-13T09:05:03;15.10;;;7.70;;
29568;SDS011;16501;51.462;14.346;2022-12-13T09:07:29;14.07;;;6.93;;
29568;SDS011;16501;51.462;14.346;2022-12-13T09:09:54;15.32;;;7.45;;
29568;SDS011;16501;51.462;14.346;2022-12-13T09:12:20;23.25;;;8.10;;
29568;SDS011;16501;51.462;14.346;2022-12-13T09:14:45;14.93;;;7.53;;
29568;SDS011;16501;51.462;14.346;2022-12-13T09:17:12;15.85;;;8.88;;
29568;SDS011;16501;51.462;14.346;2022-12-13T09:19:39;75.03;;;28.83;;
29568;SDS011;16501;51.462;14.346;2022-12-13T09:22:05;151.23;;;50.72;;
29568;SDS011;16501;51.462;14.346;2022-12-13T09:24:31;99.10;;;36.30;;
29568;SDS011;16501;51.462;14.346;2022-12-13T09:26:57;88.57;;;32.05;;
29568;SDS011;16501;51.462;14.346;2022-12-13T09:29:22;249.65;;;78.05;;
29568;SDS011;16501;51.462;14.346;2022-12-13T09:31:47;152.85;;;56.47;;
29568;SDS011;16501;51.462;14.346;2022-12-13T09:34:13;35.72;;;19.23;;
29568;SDS011;16501;51.462;14.346;2022-12-13T09:36:39;16.10;;;11.02;;
29568;SDS011;16501;51.462;14.346;2022-12-13T09:39:04;15.07;;;8.82;;
29568;SDS011;16501;51.462;14.346;2022-12-13T09:41:31;16.65;;;8.20;;
29568;SDS011;16501;51.462;14.346;2022-12-13T09:44:06;13.77;;;8.13;;
29568;SDS011;16501;51.462;14.346;2022-12-13T09:46:41;14.48;;;7.20;;
29568;SDS011;16501;51.462;14.346;2022-12-13T09:49:20;13.00;;;7.15;;
29568;SDS011;16501;51.462;14.346;2022-12-13T09:51:54;14.75;;;7.53;;
29568;SDS011;16501;51.462;14.346;2022-12-13T09:54:22;13.07;;;7.57;;
29568;SDS011;16501;51.462;14.346;2022-12-13T09:56:50;18.63;;;9.38;;
29568;SDS011;16501;51.462;14.346;2022-12-13T09:59:18;15.75;;;8.02;;
29568;SDS011;16501;51.462;14.346;2022-12-13T10:02:02;10.95;;;6.10;;
29568;SDS011;16501;51.462;14.346;2022-12-13T10:04:42;12.02;;;6.90;;
29568;SDS011;16501;51.462;14.346;2022-12-13T10:07:12;10.50;;;6.15;;
29568;SDS011;16501;51.462;14.346;2022-12-13T10:09:44;9.65;;;5.50;;
29568;SDS011;16501;51.462;14.346;2022-12-13T10:12:11;11.05;;;5.60;;
29568;SDS011;16501;51.462;14.346;2022-12-13T10:14:42;12.15;;;5.82;;
29568;SDS011;16501;51.462;14.346;2022-12-13T10:17:14;16.35;;;8.15;;
29568;SDS011;16501;51.462;14.346;2022-12-13T10:19:45;9.38;;;5.20;;
29568;SDS011;16501;51.462;14.346;2022-12-13T10:22:15;10.45;;;5.38;;
29568;SDS011;16501;51.462;14.346;2022-12-13T10:24:47;10.02;;;5.03;;
29568;SDS011;16501;51.462;14.346;2022-12-13T10:27:14;10.18;;;5.43;;
29568;SDS011;16501;51.462;14.346;2022-12-13T10:32:41;10.93;;;5.43;;
29568;SDS011;16501;51.462;14.346;2022-12-13T10:35:33;10.88;;;5.32;;
29568;SDS011;16501;51.462;14.346;2022-12-13T10:38:00;11.55;;;6.90;;
29568;SDS011;16501;51.462;14.346;2022-12-13T10:40:34;10.55;;;5.97;;
29568;SDS011;16501;51.462;14.346;2022-12-13T10:43:12;10.77;;;5.75;;
29568;SDS011;16501;51.462;14.346;2022-12-13T10:48:29;7.78;;;4.13;;
29568;SDS011;16501;51.462;14.346;2022-12-13T10:51:11;9.07;;;3.72;;
29568;SDS011;16501;51.462;14.346;2022-12-13T10:53:40;8.32;;;4.20;;
29568;SDS011;16501;51.462;14.346;2022-12-13T10:56:12;8.70;;;4.30;;
29568;SDS011;16501;51.462;14.346;2022-12-13T10:58:43;4.55;;;3.42;;
29568;SDS011;16501;51.462;14.346;2022-12-13T11:03:43;10.55;;;4.43;;
29568;SDS011;16501;51.462;14.346;2022-12-13T11:06:24;8.95;;;4.38;;
29568;SDS011;16501;51.462;14.346;2022-12-13T11:08:52;10.60;;;4.95;;
29568;SDS011;16501;51.462;14.346;2022-12-13T11:11:23;10.88;;;5.30;;
29568;SDS011;16501;51.462;14.346;2022-12-13T11:13:53;7.38;;;4.40;;
29568;SDS011;16501;51.462;14.346;2022-12-13T11:16:22;7.18;;;3.63;;
29568;SDS011;16501;51.462;14.346;2022-12-13T11:18:53;13.32;;;6.80;;
29568;SDS011;16501;51.462;14.346;2022-12-13T11:21:24;15.93;;;8.43;;
29568;SDS011;16501;51.462;14.346;2022-12-13T11:23:52;18.58;;;7.53;;
29568;SDS011;16501;51.462;14.346;2022-12-13T11:26:21;14.30;;;7.47;;
29568;SDS011;16501;51.462;14.346;2022-12-13T11:34:22;6.03;;;3.65;;
29568;SDS011;16501;51.462;14.346;2022-12-13T11:39:53;6.75;;;3.83;;
29568;SDS011;16501;51.462;14.346;2022-12-13T11:50:33;5.55;;;3.42;;
29568;SDS011;16501;51.462;14.346;2022-12-13T11:58:55;9.45;;;4.60;;
29568;SDS011;16501;51.462;14.346;2022-12-13T12:01:24;6.60;;;3.72;;
29568;SDS011;16501;51.462;14.346;2022-12-13T12:06:42;10.50;;;5.50;;
29568;SDS011;16501;51.462;14.346;2022-12-13T12:09:16;13.38;;;5.28;;
29568;SDS011;16501;51.462;14.346;2022-12-13T12:12:06;11.77;;;6.23;;
29568;SDS011;16501;51.462;14.346;2022-12-13T12:17:19;6.32;;;3.92;;
29568;SDS011;16501;51.462;14.346;2022-12-13T12:19:49;9.85;;;5.22;;
29568;SDS011;16501;51.462;14.346;2022-12-13T12:41:15;10.32;;;4.95;;
29568;SDS011;16501;51.462;14.346;2022-12-13T12:55:17;17.58;;;7.07;;
29568;SDS011;16501;51.462;14.346;2022-12-13T13:00:15;13.95;;;6.82;;
29568;SDS011;16501;51.462;14.346;2022-12-13T13:02:50;9.15;;;5.07;;
29568;SDS011;16501;51.462;14.346;2022-12-13T13:05:40;11.90;;;6.75;;
29568;SDS011;16501;51.462;14.346;2022-12-13T13:08:54;13.60;;;5.72;;
29568;SDS011;16501;51.462;14.346;2022-12-13T13:11:27;9.60;;;4.63;;
29568;SDS011;16501;51.462;14.346;2022-12-13T13:18:52;14.07;;;5.90;;
29568;SDS011;16501;51.462;14.346;2022-12-13T13:23:47;16.17;;;6.22;;
29568;SDS011;16501;51.462;14.346;2022-12-13T13:26:39;26.55;;;11.10;;
29568;SDS011;16501;51.462;14.346;2022-12-13T13:34:32;15.63;;;7.18;;
29568;SDS011;16501;51.462;14.346;2022-12-13T13:37:00;7.75;;;4.13;;
29568;SDS011;16501;51.462;14.346;2022-12-13T13:41:55;8.48;;;4.43;;
29568;SDS011;16501;51.462;14.346;2022-12-13T13:55:33;10.50;;;6.13;;
29568;SDS011;16501;51.462;14.346;2022-12-13T14:28:49;10.55;;;5.35;;
29568;SDS011;16501;51.462;14.346;2022-12-13T14:34:00;11.05;;;5.43;;
29568;SDS011;16501;51.462;14.346;2022-12-13T14:36:30;11.25;;;6.05;;
29568;SDS011;16501;51.462;14.346;2022-12-13T14:39:32;14.88;;;7.15;;
29568;SDS011;16501;51.462;14.346;2022-12-13T14:41:53;12.35;;;5.32;;
29568;SDS011;16501;51.462;14.346;2022-12-13T14:44:24;13.32;;;6.53;;
29568;SDS011;16501;51.462;14.346;2022-12-13T14:46:54;10.38;;;5.68;;
29568;SDS011;16501;51.462;14.346;2022-12-13T14:49:21;10.82;;;5.45;;
29568;SDS011;16501;51.462;14.346;2022-12-13T14:51:49;10.82;;;5.88;;
29568;SDS011;16501;51.462;14.346;2022-12-13T14:54:25;12.13;;;5.68;;
29568;SDS011;16501;51.462;14.346;2022-12-13T14:56:56;10.43;;;4.80;;
29568;SDS011;16501;51.462;14.346;2022-12-13T14:59:24;8.85;;;5.22;;
29568;SDS011;16501;51.462;14.346;2022-12-13T15:02:00;11.55;;;5.85;;
29568;SDS011;16501;51.462;14.346;2022-12-13T15:06:54;12.27;;;6.40;;
29568;SDS011;16501;51.462;14.346;2022-12-13T15:09:24;10.98;;;5.40;;
29568;SDS011;16501;51.462;14.346;2022-12-13T15:11:50;13.95;;;6.10;;
29568;SDS011;16501;51.462;14.346;2022-12-13T15:14:17;12.73;;;6.07;;
29568;SDS011;16501;51.462;14.346;2022-12-13T15:16:49;14.15;;;6.68;;
29568;SDS011;16501;51.462;14.346;2022-12-13T15:19:21;12.18;;;5.57;;
29568;SDS011;16501;51.462;14.346;2022-12-13T15:21:56;13.85;;;6.15;;
29568;SDS011;16501;51.462;14.346;2022-12-13T15:24:28;12.23;;;6.82;;
29568;SDS011;16501;51.462;14.346;2022-12-13T15:26:56;17.83;;;6.97;;
29568;SDS011;16501;51.462;14.346;2022-12-13T15:29:23;15.35;;;7.40;;
29568;SDS011;16501;51.462;14.346;2022-12-13T15:31:52;15.80;;;6.13;;
29568;SDS011;16501;51.462;14.346;2022-12-13T15:36:57;12.70;;;5.85;;
29568;SDS011;16501;51.462;14.346;2022-12-13T15:39:24;14.55;;;6.43;;
29568;SDS011;16501;51.462;14.346;2022-12-13T15:41:50;12.13;;;6.00;;
29568;SDS011;16501;51.462;14.346;2022-12-13T15:44:22;13.85;;;7.35;;
29568;SDS011;16501;51.462;14.346;2022-12-13T15:46:53;13.88;;;6.78;;
29568;SDS011;16501;51.462;14.346;2022-12-13T15:49:36;13.02;;;6.97;;
29568;SDS011;16501;51.462;14.346;2022-12-13T15:52:05;13.00;;;6.05;;
29568;SDS011;16501;51.462;14.346;2022-12-13T15:54:58;15.85;;;6.60;;
29568;SDS011;16501;51.462;14.346;2022-12-13T15:57:33;12.65;;;6.35;;
29568;SDS011;16501;51.462;14.346;2022-12-13T16:08:24;11.32;;;6.25;;
29568;SDS011;16501;51.462;14.346;2022-12-13T16:10:52;12.10;;;6.10;;
29568;SDS011;16501;51.462;14.346;2022-12-13T16:13:28;10.05;;;5.05;;
29568;SDS011;16501;51.462;14.346;2022-12-13T16:15:59;9.30;;;4.60;;
29568;SDS011;16501;51.462;14.346;2022-12-13T16:18:30;12.25;;;6.68;;
29568;SDS011;16501;51.462;14.346;2022-12-13T16:20:57;10.35;;;5.97;;
29568;SDS011;16501;51.462;14.346;2022-12-13T16:23:23;14.40;;;7.50;;
29568;SDS011;16501;51.462;14.346;2022-12-13T16:25:49;14.82;;;6.25;;
29568;SDS011;16501;51.462;14.346;2022-12-13T16:28:16;17.27;;;7.65;;
29568;SDS011;16501;51.462;14.346;2022-12-13T16:33:20;19.13;;;9.20;;
29568;SDS011;16501;51.462;14.346;2022-12-13T16:35:47;19.00;;;8.13;;
29568;SDS011;16501;51.462;14.346;2022-12-13T16:38:13;15.82;;;8.05;;
29568;SDS011;16501;51.462;14.346;2022-12-13T16:40:40;18.92;;;9.23;;
29568;SDS011;16501;51.462;14.346;2022-12-13T16:43:18;17.55;;;8.80;;
29568;SDS011;16501;51.462;14.346;2022-12-13T16:45:49;17.05;;;8.05;;
29568;SDS011;16501;51.462;14.346;2022-12-13T16:48:17;14.77;;;7.35;;
29568;SDS011;16501;51.462;14.346;2022-12-13T16:50:44;17.08;;;8.70;;
29568;SDS011;16501;51.462;14.346;2022-12-13T16:53:11;17.17;;;7.50;;
29568;SDS011;16501;51.462;14.346;2022-12-13T16:55:38;17.52;;;8.05;;
29568;SDS011;16501;51.462;14.346;2022-12-13T16:58:04;17.10;;;8.65;;
29568;SDS011;16501;51.462;14.346;2022-12-13T17:00:33;18.67;;;9.20;;
29568;SDS011;16501;51.462;14.346;2022-12-13T17:02:58;21.63;;;9.25;;
29568;SDS011;16501;51.462;14.346;2022-12-13T17:05:25;17.83;;;9.38;;
29568;SDS011;16501;51.462;14.346;2022-12-13T17:07:52;19.23;;;9.60;;
29568;SDS011;16501;51.462;14.346;2022-12-13T17:10:18;20.90;;;10.18;;
29568;SDS011;16501;51.462;14.346;2022-12-13T17:12:44;41.17;;;15.20;;
29568;SDS011;16501;51.462;14.346;2022-12-13T17:15:10;37.97;;;15.45;;